Terminal Aerodrome Forecast
Issued by NWS North Platte, NE

Home | Current Version | Previous Version | Text Only | Print | Product List | Glossary On
Versions: 1 2 3 4 5 6 7 8 9 10 11 12 13 14 15 16
599
FTUS43 KLBF 261729
TAFLBF
TAF
KLBF 261729Z 2618/2718 06010KT P6SM FEW250
     FM262200 10006KT P6SM SCT200
     FM270200 09008KT P6SM VCTS BKN110CB
     FM270500 10007KT P6SM VCTS BKN090CB WS020/17035KT
     FM270900 03005KT P6SM -SHRA VCTS OVC050CB
     FM271300 02006KT P6SM OVC050=

USA.gov is the U.S. government's official web portal to all federal, state and local government web resources and services.